Time;durP1;ratioP1;P1;durP2;ratioP2;P2;SDS_P1;SDS_P2;PMS_P1;PMS_P2;Temp;Humidity;BMP_temperature;BMP_pressure;BME280_temperature;BME280_humidity;BME280_pressure;Samples;Min_cycle;Max_cycle;Signal;HPM_P1;HPM_P2
2023/02/01 00:00:13;;;;;;;13.77;7.97;;;;;;;-0.89;100.00;93163.41;5070288;28;20492;-70
2023/02/01 00:02:40;;;;;;;14.35;6.85;;;;;;;-1.05;100.00;93152.19;5070589;28;20102;-70
2023/02/01 00:05:08;;;;;;;13.30;6.47;;;;;;;-0.98;100.00;93150.69;5070055;28;20060;-70
2023/02/01 00:07:35;;;;;;;13.18;6.40;;;;;;;-1.16;100.00;93155.69;5070043;28;20057;-70
2023/02/01 00:10:03;;;;;;;16.38;6.93;;;;;;;-1.10;100.00;93156.88;5070562;28;20098;-70
2023/02/01 00:12:30;;;;;;;13.30;6.40;;;;;;;-1.19;100.00;93162.72;5069858;28;20522;-70
2023/02/01 00:14:56;;;;;;;16.08;7.15;;;;;;;-1.10;100.00;93152.59;5059799;28;20412;-70
2023/02/01 00:17:25;;;;;;;11.73;6.72;;;;;;;-1.21;100.00;93162.88;5067443;28;20094;-70
2023/02/01 00:19:52;;;;;;;11.38;6.57;;;;;;;-1.24;100.00;93161.41;5069947;28;20049;-70
2023/02/01 00:22:19;;;;;;;20.63;8.35;;;;;;;-1.55;100.00;93158.34;5069223;28;20527;-70
2023/02/01 00:24:45;;;;;;;14.15;6.53;;;;;;;-1.57;100.00;93165.25;5069938;28;20053;-70
2023/02/01 00:27:17;;;;;;;10.05;5.28;;;;;;;-1.69;100.00;93167.94;5069750;28;20048;-70
2023/02/01 00:29:44;;;;;;;6.82;4.82;;;;;;;-1.72;100.00;93165.66;5069882;28;20059;-70
2023/02/01 00:32:11;;;;;;;7.18;5.03;;;;;;;-1.73;100.00;93161.56;5069026;28;20037;-70
2023/02/01 00:34:39;;;;;;;6.55;4.68;;;;;;;-1.84;100.00;93156.69;5069283;28;20174;-70
2023/02/01 00:37:05;;;;;;;6.60;4.85;;;;;;;-1.84;100.00;93156.69;5068902;28;20451;-70
2023/02/01 00:39:32;;;;;;;8.27;5.43;;;;;;;-1.80;100.00;93160.53;5068964;28;20082;-70
2023/02/01 00:42:00;;;;;;;9.32;4.93;;;;;;;-1.84;100.00;93157.50;5069024;28;20534;-70
2023/02/01 00:44:27;;;;;;;7.85;4.85;;;;;;;-1.78;100.00;93158.66;5068529;28;20443;-70
2023/02/01 00:46:54;;;;;;;6.85;5.32;;;;;;;-1.83;100.00;93148.19;5055933;28;20432;-70
2023/02/01 00:49:21;;;;;;;7.00;5.30;;;;;;;-1.84;100.00;93151.66;5060702;28;20558;-70
2023/02/01 00:51:49;;;;;;;6.18;4.18;;;;;;;-2.00;100.00;93149.69;5068886;28;20052;-70
2023/02/01 00:54:16;;;;;;;6.80;4.80;;;;;;;-2.11;100.00;93143.06;5069386;28;20052;-70
2023/02/01 00:56:43;;;;;;;7.30;4.25;;;;;;;-2.18;100.00;93147.84;5069329;28;20094;-70
2023/02/01 00:59:12;;;;;;;6.82;4.60;;;;;;;-2.28;100.00;93148.66;5069646;28;20086;-70
2023/02/01 01:01:39;;;;;;;6.20;5.18;;;;;;;-2.26;100.00;93158.59;5068836;28;20055;-70
2023/02/01 01:04:06;;;;;;;7.18;4.13;;;;;;;-2.26;100.00;93148.53;5068926;28;20048;-70
2023/02/01 01:06:34;;;;;;;7.38;4.22;;;;;;;-2.17;100.00;93149.44;5068712;28;20037;-70
2023/02/01 01:09:04;;;;;;;8.63;4.85;;;;;;;-2.25;100.00;93129.16;5069261;28;20044;-70
2023/02/01 01:11:33;;;;;;;7.35;4.63;;;;;;;-2.09;100.00;93148.78;5042766;28;20036;-70
2023/02/01 01:14:01;;;;;;;5.45;4.82;;;;;;;-2.10;100.00;93144.66;5069077;28;20044;-71
2023/02/01 01:16:29;;;;;;;5.93;4.47;;;;;;;-2.14;100.00;93146.63;5068818;28;20041;-70
2023/02/01 01:18:57;;;;;;;7.85;5.03;;;;;;;-2.11;100.00;93140.53;5068483;28;20044;-70
2023/02/01 01:21:24;;;;;;;10.35;5.60;;;;;;;-2.10;100.00;93140.41;5069135;28;20496;-70
2023/02/01 01:23:50;;;;;;;9.65;5.40;;;;;;;-2.01;100.00;93141.34;5068988;28;20079;-70
2023/02/01 01:26:20;;;;;;;58.63;20.50;;;;;;;-1.97;100.00;93137.63;5069094;28;20408;-70
2023/02/01 01:28:48;;;;;;;63.17;21.25;;;;;;;-1.91;100.00;93144.63;5065059;28;20102;-70
2023/02/01 01:31:17;;;;;;;47.10;17.73;;;;;;;-2.03;100.00;93138.94;5054281;28;20045;-71
2023/02/01 01:33:44;;;;;;;22.02;9.50;;;;;;;-1.98;100.00;93141.06;5048477;28;20103;-70
2023/02/01 01:36:12;;;;;;;34.63;14.55;;;;;;;-1.96;100.00;93156.84;5048399;28;20086;-70
2023/02/01 01:38:39;;;;;;;43.75;15.60;;;;;;;-2.11;100.00;93158.16;5048353;28;20045;-70
2023/02/01 01:41:06;;;;;;;13.63;6.03;;;;;;;-2.21;100.00;93165.72;5048549;28;20087;-71
2023/02/01 01:43:54;;;;;;;6.03;4.90;;;;;;;-2.38;100.00;93160.44;5048632;28;20053;-70
2023/02/01 01:46:22;;;;;;;9.70;5.30;;;;;;;-2.42;100.00;93159.09;5048908;28;20072;-71
2023/02/01 01:48:55;;;;;;;6.55;4.55;;;;;;;-2.38;100.00;93159.63;5048359;28;20095;-70
2023/02/01 01:51:25;;;;;;;8.90;6.25;;;;;;;-2.24;100.00;93166.78;5048573;28;20589;-70
2023/02/01 01:54:00;;;;;;;10.40;5.90;;;;;;;-2.14;100.00;93169.28;5048573;28;20142;-70
2023/02/01 01:56:29;;;;;;;6.80;4.55;;;;;;;-2.12;100.00;93161.63;5064893;28;20455;-70
2023/02/01 01:58:58;;;;;;;6.10;4.22;;;;;;;-2.15;100.00;93160.16;5072452;28;20056;-70
2023/02/01 02:01:25;;;;;;;7.22;4.50;;;;;;;-2.11;100.00;93160.69;5072472;28;20434;-70
2023/02/01 02:03:53;;;;;;;7.15;4.35;;;;;;;-2.35;100.00;93136.72;5072171;28;20500;-70
2023/02/01 02:06:32;;;;;;;8.43;5.22;;;;;;;-2.08;100.00;93165.47;5072011;28;20045;-71
2023/02/01 02:08:58;;;;;;;6.15;4.72;;;;;;;-2.02;100.00;93158.19;5072257;28;20044;-70
2023/02/01 02:11:25;;;;;;;7.13;5.45;;;;;;;-1.92;100.00;93165.72;5072155;28;20090;-70
2023/02/01 02:13:54;;;;;;;8.40;5.53;;;;;;;-1.96;100.00;93159.34;5072381;28;20440;-70
2023/02/01 02:16:41;;;;;;;6.03;4.55;;;;;;;-1.92;100.00;93158.16;5072286;28;20041;-70
2023/02/01 02:19:34;;;;;;;7.97;5.32;;;;;;;-2.03;100.00;93161.59;5071657;28;20041;-71
2023/02/01 02:22:36;;;;;;;10.30;7.25;;;;;;;-1.96;100.00;93161.88;5072191;28;20037;-71
2023/02/01 02:25:21;;;;;;;14.73;8.82;;;;;;;-1.92;100.00;93162.38;5072055;28;20101;-71
2023/02/01 02:27:57;;;;;;;12.77;9.02;;;;;;;-1.91;100.00;93164.78;5071782;28;20098;-71
2023/02/01 02:30:50;;;;;;;14.95;8.80;;;;;;;-1.90;100.00;93163.84;5071972;28;20207;-71
2023/02/01 02:33:52;;;;;;;14.77;9.13;;;;;;;-1.85;100.00;93160.91;5071586;28;20041;-71
2023/02/01 02:36:33;;;;;;;31.42;21.35;;;;;;;-1.78;100.00;93164.50;5071864;28;20041;-71
2023/02/01 02:39:08;;;;;;;17.52;12.18;;;;;;;-1.79;100.00;93162.09;5071886;28;20420;-71
2023/02/01 02:47:28;;;;;;;8.77;5.80;;;;;;;-2.28;100.00;93171.28;5071544;28;20082;-71
2023/02/01 02:55:46;;;;;;;7.97;6.07;;;;;;;-2.63;100.00;93180.13;5071120;28;20488;-71
2023/02/01 03:06:34;;;;;;;13.07;8.50;;;;;;;-2.22;100.00;93179.25;5070836;28;20054;-70
2023/02/01 03:09:05;;;;;;;14.68;8.93;;;;;;;-2.15;100.00;93183.63;5071286;28;20048;-70
2023/02/01 03:14:16;;;;;;;14.60;9.82;;;;;;;-2.55;100.00;93116.59;5070815;28;20044;-71
2023/02/01 03:16:51;;;;;;;15.73;8.98;;;;;;;-1.92;100.00;93202.66;5070871;28;20489;-71
2023/02/01 03:19:23;;;;;;;14.80;9.20;;;;;;;-1.81;100.00;93194.97;5070831;28;20045;-70
2023/02/01 03:21:53;;;;;;;16.70;8.85;;;;;;;-1.76;100.00;93202.91;5068753;28;20084;-70
2023/02/01 03:24:32;;;;;;;13.18;9.40;;;;;;;-1.68;100.00;93214.03;5048599;28;20041;-70
2023/02/01 03:27:05;;;;;;;10.40;7.50;;;;;;;-1.68;100.00;93203.97;5050901;28;20394;-70
2023/02/01 03:29:39;;;;;;;14.15;7.78;;;;;;;-1.65;100.00;93193.63;5061088;28;20636;-70
2023/02/01 03:32:06;;;;;;;14.95;9.02;;;;;;;-1.60;100.00;93199.06;5070697;28;20048;-70
2023/02/01 03:34:33;;;;;;;12.50;9.07;;;;;;;-1.58;100.00;93198.94;5070750;28;20052;-70
2023/02/01 03:37:05;;;;;;;11.18;7.90;;;;;;;-1.58;100.00;93206.47;5070437;28;20090;-70
2023/02/01 03:39:36;;;;;;;11.98;8.55;;;;;;;-1.66;100.00;93204.63;5070865;28;20044;-70
2023/02/01 03:42:05;;;;;;;12.55;8.98;;;;;;;-1.54;100.00;93212.81;5070726;28;20098;-70
2023/02/01 03:44:37;;;;;;;11.15;8.35;;;;;;;-1.55;100.00;93208.72;5070396;28;20041;-70
2023/02/01 03:47:09;;;;;;;12.15;8.50;;;;;;;-1.56;100.00;93202.09;5070248;28;20093;-70
2023/02/01 03:49:40;;;;;;;13.32;9.57;;;;;;;-1.63;100.00;93197.59;5070329;28;20063;-70
2023/02/01 03:52:12;;;;;;;13.45;8.48;;;;;;;-1.64;100.00;93198.53;5069926;28;20041;-70
2023/02/01 03:54:39;;;;;;;16.30;9.52;;;;;;;-1.54;100.00;93201.03;5070405;28;20086;-70
2023/02/01 03:57:11;;;;;;;21.65;12.40;;;;;;;-1.65;100.00;93186.88;5070142;28;20101;-70
2023/02/01 03:59:40;;;;;;;20.10;12.70;;;;;;;-1.50;100.00;93206.59;5070404;28;20443;-70
2023/02/01 04:02:07;;;;;;;25.38;15.40;;;;;;;-1.51;100.00;93203.28;5070176;28;21183;-70
2023/02/01 04:04:35;;;;;;;23.48;16.75;;;;;;;-1.50;100.00;93202.34;5069784;28;20044;-71
2023/02/01 04:07:02;;;;;;;22.70;16.45;;;;;;;-1.52;100.00;93203.41;5069736;28;20040;-70
2023/02/01 04:09:31;;;;;;;20.27;14.70;;;;;;;-1.43;100.00;93202.59;5069593;28;20048;-70
2023/02/01 04:11:58;;;;;;;16.38;11.55;;;;;;;-1.42;100.00;93196.63;5070138;28;20044;-68
2023/02/01 04:14:25;;;;;;;15.95;11.20;;;;;;;-1.40;100.00;93201.50;5069537;28;20044;-69
2023/02/01 04:16:52;;;;;;;14.90;10.25;;;;;;;-1.38;100.00;93205.50;5069959;28;20052;-70
2023/02/01 04:19:19;;;;;;;13.07;9.13;;;;;;;-1.35;100.00;93211.97;5069455;28;20382;-70
2023/02/01 04:21:46;;;;;;;31.58;16.48;;;;;;;-1.31;100.00;93210.00;5069378;28;20049;-70
2023/02/01 04:24:12;;;;;;;36.33;20.98;;;;;;;-1.30;100.00;93212.38;5069801;28;20738;-69
2023/02/01 04:26:40;;;;;;;35.50;19.02;;;;;;;-1.32;100.00;93208.41;5069757;28;20103;-70
2023/02/01 04:29:09;;;;;;;33.72;19.35;;;;;;;-1.25;100.00;93205.19;5068996;28;20465;-70
2023/02/01 04:31:36;;;;;;;28.58;17.67;;;;;;;-1.25;100.00;93205.19;5069561;28;20467;-69
2023/02/01 04:34:03;;;;;;;30.88;18.70;;;;;;;-1.26;100.00;93200.28;5069606;28;20090;-69
2023/02/01 04:36:30;;;;;;;33.80;19.90;;;;;;;-1.26;100.00;93203.63;5069444;28;20090;-69
2023/02/01 04:38:56;;;;;;;29.27;17.95;;;;;;;-1.26;100.00;93203.63;5069442;28;20048;-69
2023/02/01 04:41:23;;;;;;;46.47;24.25;;;;;;;-1.26;100.00;93208.66;5069383;28;20444;-69
2023/02/01 04:43:52;;;;;;;44.15;23.90;;;;;;;-1.22;100.00;93206.66;5069594;28;20040;-70
2023/02/01 04:46:19;;;;;;;34.28;19.45;;;;;;;-1.21;100.00;93204.00;5069179;28;20493;-70
2023/02/01 04:48:46;;;;;;;29.73;19.48;;;;;;;-1.22;100.00;93199.09;5068691;28;20052;-70
2023/02/01 04:51:13;;;;;;;34.83;21.40;;;;;;;-1.24;100.00;93209.28;5069279;28;20102;-70
2023/02/01 04:53:39;;;;;;;31.17;19.52;;;;;;;-1.21;100.00;93215.78;5069060;28;20516;-70
2023/02/01 04:56:07;;;;;;;24.65;16.30;;;;;;;-1.26;100.00;93202.81;5069035;28;20045;-70
2023/02/01 04:58:34;;;;;;;32.15;16.35;;;;;;;-1.25;100.00;93222.06;5069002;28;20052;-69
2023/02/01 05:01:05;;;;;;;23.58;15.80;;;;;;;-1.22;100.00;93222.56;5068928;28;20066;-69
2023/02/01 05:03:31;;;;;;;23.85;15.75;;;;;;;-1.21;100.00;93231.72;5069207;28;20424;-70
2023/02/01 05:05:59;;;;;;;23.15;13.90;;;;;;;-1.19;100.00;93228.25;5069042;28;20048;-69
2023/02/01 05:08:26;;;;;;;27.90;16.20;;;;;;;-1.16;100.00;93236.34;5069196;28;20056;-69
2023/02/01 05:10:53;;;;;;;24.42;15.98;;;;;;;-1.13;100.00;93240.31;5069003;28;20052;-70
2023/02/01 05:16:06;;;;;;;27.70;14.13;;;;;;;-1.17;100.00;93244.06;5068814;28;20170;-71
2023/02/01 05:18:33;;;;;;;22.42;14.30;;;;;;;-1.13;100.00;93252.91;5068860;28;20102;-70
2023/02/01 05:21:00;;;;;;;23.15;15.40;;;;;;;-1.11;100.00;93256.91;5068581;28;20049;-70
2023/02/01 05:23:27;;;;;;;23.95;15.05;;;;;;;-1.07;100.00;93259.94;5068740;28;20473;-70
2023/02/01 05:25:59;;;;;;;23.83;14.73;;;;;;;-1.06;100.00;93253.19;5068809;28;20094;-70
2023/02/01 05:28:26;;;;;;;29.33;16.20;;;;;;;-1.03;100.00;93258.72;5068570;28;20507;-70
2023/02/01 05:30:53;;;;;;;24.75;15.38;;;;;;;-1.08;100.00;93250.78;5067707;28;20075;-70
2023/02/01 05:33:21;;;;;;;20.55;13.85;;;;;;;-1.02;100.00;93252.75;5068734;28;20040;-70
2023/02/01 05:35:48;;;;;;;19.23;13.18;;;;;;;-0.99;100.00;93256.72;5068439;28;20051;-69
2023/02/01 05:38:15;;;;;;;20.80;13.38;;;;;;;-1.01;100.00;93249.31;5068601;28;20045;-70
2023/02/01 05:40:41;;;;;;;23.30;14.35;;;;;;;-1.05;100.00;93252.25;5068461;28;20036;-69
2023/02/01 05:43:08;;;;;;;23.15;14.55;;;;;;;-1.08;100.00;93250.78;5068307;28;20048;-70
2023/02/01 05:45:35;;;;;;;23.98;14.30;;;;;;;-1.10;100.00;93258.47;5068277;28;20093;-70
2023/02/01 05:48:01;;;;;;;13.75;8.05;;;;;;;-1.15;100.00;93248.00;5068652;28;20045;-70
2023/02/01 05:50:29;;;;;;;20.92;13.57;;;;;;;-1.19;100.00;93253.47;5068122;28;20040;-70
2023/02/01 05:52:56;;;;;;;22.30;13.88;;;;;;;-1.15;100.00;93255.56;5068222;28;20041;-70
2023/02/01 05:55:23;;;;;;;28.27;18.02;;;;;;;-1.15;100.00;93242.19;5068227;28;20086;-69
2023/02/01 05:57:50;;;;;;;22.15;15.13;;;;;;;-1.03;100.00;93242.81;5068326;28;20044;-70
2023/02/01 06:00:17;;;;;;;26.77;18.00;;;;;;;-1.23;100.00;93252.94;5068226;28;20044;-70
2023/02/01 06:02:44;;;;;;;23.23;15.43;;;;;;;-1.48;100.00;93252.63;5068450;28;20094;-69
2023/02/01 06:05:10;;;;;;;25.50;17.40;;;;;;;-1.39;100.00;93253.53;5068351;28;20041;-70
2023/02/01 06:07:39;;;;;;;22.95;14.77;;;;;;;-1.74;100.00;93253.16;5068355;28;20073;-71
2023/02/01 06:10:06;;;;;;;31.88;18.75;;;;;;;-1.66;100.00;93255.78;5063553;28;20358;-70
2023/02/01 06:12:33;;;;;;;35.22;22.20;;;;;;;-1.61;100.00;93253.66;5065990;28;20051;-70
2023/02/01 06:15:00;;;;;;;35.25;21.98;;;;;;;-1.52;100.00;93242.00;5061137;28;20555;-70
2023/02/01 06:17:26;;;;;;;33.13;20.85;;;;;;;-1.48;100.00;93245.06;5047750;28;20036;-70
2023/02/01 06:19:53;;;;;;;50.05;31.33;;;;;;;-1.45;100.00;93251.56;5048258;28;20139;-70
2023/02/01 06:22:21;;;;;;;36.80;22.40;;;;;;;-1.37;100.00;93249.13;5048156;28;20107;-70
2023/02/01 06:24:49;;;;;;;30.60;21.63;;;;;;;-1.27;100.00;93261.72;5047707;28;20045;-70
2023/02/01 06:27:16;;;;;;;35.17;20.60;;;;;;;-1.16;100.00;93265.81;5047951;28;20045;-69
2023/02/01 06:29:43;;;;;;;34.75;21.85;;;;;;;-1.08;100.00;93268.44;5059591;28;20040;-70
2023/02/01 06:32:09;;;;;;;49.97;30.70;;;;;;;-1.02;100.00;93267.09;5067710;28;20497;-70
2023/02/01 06:34:37;;;;;;;38.65;24.75;;;;;;;-0.98;100.00;93268.41;5068131;28;20044;-69
2023/02/01 06:37:03;;;;;;;43.03;26.83;;;;;;;-0.94;100.00;93262.16;5068061;28;20102;-70
2023/02/01 06:39:30;;;;;;;44.95;27.67;;;;;;;-0.95;100.00;93268.13;5067500;28;20497;-69
2023/02/01 06:41:58;;;;;;;40.55;24.02;;;;;;;-0.95;100.00;93268.94;5070260;28;20420;-69
2023/02/01 06:44:25;;;;;;;38.40;23.52;;;;;;;-0.86;100.00;93274.88;5072058;28;20444;-69
2023/02/01 06:46:51;;;;;;;43.42;25.05;;;;;;;-0.84;100.00;93278.03;5071660;28;20044;-69
2023/02/01 06:49:19;;;;;;;41.10;24.73;;;;;;;-0.80;100.00;93278.56;5071194;28;20090;-69
2023/02/01 06:51:46;;;;;;;39.90;24.95;;;;;;;-0.76;100.00;93277.38;5071808;28;20538;-69
2023/02/01 06:54:13;;;;;;;44.85;24.85;;;;;;;-0.68;100.00;93282.50;5071938;28;20037;-70
2023/02/01 06:56:39;;;;;;;43.88;25.38;;;;;;;-0.68;100.00;93276.66;5071260;28;20052;-70
2023/02/01 06:59:08;;;;;;;68.55;34.75;;;;;;;-0.57;100.00;93290.81;5071643;28;20057;-70
2023/02/01 07:01:35;;;;;;;69.13;37.75;;;;;;;-0.57;100.00;93280.72;5071698;28;20045;-70
2023/02/01 07:04:02;;;;;;;58.17;32.53;;;;;;;-0.47;100.00;93290.81;5071579;28;20053;-70
2023/02/01 07:06:29;;;;;;;61.42;33.13;;;;;;;-0.41;100.00;93298.59;5071126;28;20110;-70
2023/02/01 07:08:56;;;;;;;57.72;31.90;;;;;;;-0.37;100.00;93313.47;5071420;28;20546;-70
2023/02/01 07:11:24;;;;;;;58.28;33.20;;;;;;;-0.45;100.00;93306.59;5071159;28;20048;-70
2023/02/01 07:13:50;;;;;;;70.85;38.35;;;;;;;-0.30;100.00;93322.06;5071616;28;20044;-70
2023/02/01 07:16:20;;;;;;;71.70;40.17;;;;;;;-0.23;100.00;93325.59;5071062;28;20045;-70
2023/02/01 07:18:47;;;;;;;75.93;41.65;;;;;;;-0.38;100.00;93296.72;5070960;28;20090;-70
2023/02/01 07:21:13;;;;;;;59.55;34.03;;;;;;;-0.19;100.00;93333.72;5070791;28;20052;-70
2023/02/01 07:23:40;;;;;;;51.90;31.08;;;;;;;-0.16;100.00;93330.88;5071431;28;20082;-70
2023/02/01 07:26:10;;;;;;;114.43;64.65;;;;;;;-0.12;100.00;93333.91;5070670;28;20048;-70
2023/02/01 07:28:37;;;;;;;98.40;53.25;;;;;;;-0.06;100.00;93333.34;5071093;28;20056;-69
2023/02/01 07:31:05;;;;;;;85.93;49.88;;;;;;;0.03;100.00;93331.72;5071035;28;20048;-70
2023/02/01 07:33:33;;;;;;;93.50;58.67;;;;;;;-0.02;100.00;93334.66;5070689;28;20044;-69
2023/02/01 07:36:02;;;;;;;93.80;51.58;;;;;;;-0.02;100.00;93340.53;5070763;28;20542;-70
2023/02/01 07:38:29;;;;;;;71.07;42.53;;;;;;;0.00;100.00;93335.34;5070652;28;20385;-70
2023/02/01 07:40:58;;;;;;;64.78;37.20;;;;;;;0.04;100.00;93334.09;5070593;28;20098;-70
2023/02/01 07:43:25;;;;;;;60.13;31.75;;;;;;;0.01;100.00;93333.59;5070483;28;20040;-70
2023/02/01 07:45:53;;;;;;;62.28;34.50;;;;;;;0.03;100.00;93340.09;5070750;28;20048;-70
2023/02/01 07:48:20;;;;;;;71.05;34.55;;;;;;;0.06;100.00;93349.91;5070698;28;20145;-69
2023/02/01 07:50:48;;;;;;;66.00;33.75;;;;;;;0.13;100.00;93345.06;5070338;28;20505;-70
2023/02/01 07:53:15;;;;;;;65.43;36.08;;;;;;;0.14;100.00;93354.28;5069705;28;20102;-70
2023/02/01 07:55:42;;;;;;;55.03;31.67;;;;;;;0.14;100.00;93351.75;5070541;28;20102;-69
2023/02/01 07:58:08;;;;;;;50.55;29.65;;;;;;;0.20;100.00;93361.28;5070304;28;20442;-69
2023/02/01 08:03:19;;;;;;;97.55;53.25;;;;;;;0.34;100.00;93364.25;5047303;28;20088;-70
2023/02/01 08:05:46;;;;;;;53.70;36.22;;;;;;;0.41;100.00;93362.72;5070235;28;20117;-70
2023/02/01 08:08:14;;;;;;;47.05;28.33;;;;;;;0.52;100.00;93366.78;5070179;28;20497;-70
2023/02/01 08:10:40;;;;;;;31.45;19.02;;;;;;;0.60;100.00;93373.66;5070122;28;20048;-71
2023/02/01 08:13:07;;;;;;;25.25;17.60;;;;;;;0.63;100.00;93368.28;5069669;28;20040;-70
2023/02/01 08:15:34;;;;;;;20.77;12.75;;;;;;;0.63;100.00;93363.22;5069639;28;20459;-69
2023/02/01 08:18:02;;;;;;;24.40;15.43;;;;;;;0.64;100.00;93369.88;5070305;28;20048;-69
2023/02/01 08:20:28;;;;;;;19.25;12.95;;;;;;;0.63;100.00;93368.28;5069694;28;20094;-69
2023/02/01 08:22:55;;;;;;;15.70;12.18;;;;;;;0.59;100.00;93374.56;5070010;28;20496;-69
2023/02/01 08:25:24;;;;;;;14.38;8.45;;;;;;;0.56;100.00;93369.81;5069796;28;20037;-69
2023/02/01 08:27:51;;;;;;;12.57;7.03;;;;;;;0.55;100.00;93371.53;5059272;28;20110;-69
2023/02/01 08:30:18;;;;;;;10.82;6.85;;;;;;;0.51;100.00;93365.97;5067585;28;20118;-69
2023/02/01 08:32:45;;;;;;;11.90;5.45;;;;;;;0.53;100.00;93365.84;5070431;28;20137;-69
2023/02/01 08:35:11;;;;;;;8.57;5.32;;;;;;;0.41;100.00;93372.06;5069662;28;20097;-69
2023/02/01 08:37:38;;;;;;;9.30;5.22;;;;;;;0.44;100.00;93380.13;5069994;28;20048;-69
2023/02/01 08:40:06;;;;;;;10.70;6.18;;;;;;;0.48;100.00;93378.91;5069111;28;20045;-69
2023/02/01 08:42:53;;;;;;;10.90;5.75;;;;;;;0.51;100.00;93373.56;5069886;28;20405;-69
2023/02/01 08:45:25;;;;;;;7.55;4.82;;;;;;;0.51;100.00;93373.56;5069471;28;20126;-69
2023/02/01 08:47:52;;;;;;;9.30;6.13;;;;;;;0.56;100.00;93378.22;5069274;28;20497;-69
2023/02/01 08:50:19;;;;;;;9.40;5.35;;;;;;;0.60;100.00;93363.53;5069126;28;20056;-69
2023/02/01 08:52:46;;;;;;;11.50;6.25;;;;;;;0.63;100.00;93363.22;5068848;28;20791;-69
2023/02/01 08:55:14;;;;;;;10.93;5.90;;;;;;;0.69;100.00;93366.94;5069568;28;20084;-69
2023/02/01 08:57:42;;;;;;;14.95;7.65;;;;;;;0.81;100.00;93373.34;5068927;28;20044;-69
2023/02/01 09:00:13;;;;;;;11.98;5.60;;;;;;;0.90;100.00;93367.44;5069411;28;20048;-69
2023/02/01 09:02:39;;;;;;;7.65;5.25;;;;;;;0.96;100.00;93368.56;5069271;28;20048;-69
2023/02/01 09:05:07;;;;;;;13.82;9.77;;;;;;;1.02;100.00;93364.66;5069160;28;20201;-69
2023/02/01 09:07:34;;;;;;;11.82;6.95;;;;;;;1.05;100.00;93361.81;5069040;28;20051;-69
2023/02/01 09:10:02;;;;;;;6.95;4.18;;;;;;;1.08;100.00;93366.59;5068896;28;20040;-69
2023/02/01 09:12:29;;;;;;;10.10;5.70;;;;;;;1.09;100.00;93367.38;5068794;28;20046;-69
2023/02/01 09:14:59;;;;;;;10.32;6.80;;;;;;;1.14;100.00;93360.16;5069115;28;20048;-69
2023/02/01 09:17:26;;;;;;;10.07;5.35;;;;;;;1.18;100.00;93366.50;5068800;28;20568;-69
2023/02/01 09:19:53;;;;;;;10.02;5.93;;;;;;;1.28;100.00;93366.41;5069438;28;20049;-69
2023/02/01 09:22:20;;;;;;;8.07;4.80;;;;;;;1.33;100.00;93375.16;5068629;28;20044;-69
2023/02/01 09:24:46;;;;;;;11.00;6.72;;;;;;;1.43;100.00;93366.66;5069047;28;20044;-69
2023/02/01 09:27:13;;;;;;;15.57;8.05;;;;;;;1.52;100.00;93368.28;5069135;28;20100;-69
2023/02/01 09:29:40;;;;;;;16.75;10.68;;;;;;;1.59;100.00;93373.56;5069150;28;20090;-69
2023/02/01 09:32:08;;;;;;;44.40;26.95;;;;;;;1.71;100.00;93371.56;5068718;28;20118;-69
2023/02/01 09:34:35;;;;;;;26.92;15.80;;;;;;;1.78;100.00;93382.66;5069019;28;20129;-70
2023/02/01 09:37:02;;;;;;;26.13;16.13;;;;;;;1.86;100.00;93374.31;5068725;28;20048;-70
2023/02/01 09:39:30;;;;;;;18.90;10.70;;;;;;;1.74;100.00;93358.59;5068683;28;20049;-70
2023/02/01 09:42:05;;;;;;;15.55;7.90;;;;;;;1.74;100.00;93361.13;5068921;28;20048;-69
2023/02/01 09:45:00;;;;;;;11.15;5.57;;;;;;;1.77;100.00;93355.75;5068683;28;20392;-69
2023/02/01 09:47:29;;;;;;;9.73;6.05;;;;;;;1.77;100.00;93339.75;5068972;28;20496;-69
2023/02/01 09:50:02;;;;;;;9.15;5.45;;;;;;;1.81;100.00;93329.16;5068626;28;20048;-70
2023/02/01 09:52:35;;;;;;;11.10;5.45;;;;;;;1.94;100.00;93343.94;5068066;28;20052;-70
2023/02/01 09:55:05;;;;;;;10.98;6.05;;;;;;;2.11;100.00;93332.13;5068520;28;20513;-70
2023/02/01 09:57:43;;;;;;;11.52;6.50;;;;;;;2.24;100.00;93344.34;5068575;28;20090;-70
2023/02/01 10:00:19;;;;;;;16.05;7.90;;;;;;;2.36;100.00;93344.06;5068926;28;20056;-70
2023/02/01 10:02:48;;;;;;;27.55;13.68;;;;;;;2.46;100.00;93338.84;5068634;28;20044;-70
2023/02/01 10:05:17;;;;;;;11.30;5.70;;;;;;;2.51;100.00;93329.03;5068487;28;20493;-70
2023/02/01 10:07:57;;;;;;;8.00;4.35;;;;;;;2.46;100.00;93336.31;5068786;28;20098;-70
2023/02/01 10:10:30;;;;;;;14.80;6.90;;;;;;;2.47;100.00;93322.66;5068489;28;20106;-70
2023/02/01 10:13:17;;;;;;;10.57;5.05;;;;;;;2.57;100.00;93332.66;5068472;28;20471;-70
2023/02/01 10:15:58;;;;;;;13.98;6.78;;;;;;;2.63;100.00;93325.22;5068696;28;20041;-70
2023/02/01 10:18:48;;;;;;;15.40;7.45;;;;;;;2.74;100.00;93318.25;5072305;28;20109;-70
2023/02/01 10:21:26;;;;;;;29.48;10.50;;;;;;;2.84;100.00;93320.63;5071931;28;20063;-70
2023/02/01 10:24:16;;;;;;;46.33;17.35;;;;;;;2.93;100.00;93335.69;5072362;28;20048;-70
2023/02/01 10:26:46;;;;;;;45.38;20.05;;;;;;;2.95;100.00;93325.38;5062859;28;20464;-69
2023/02/01 10:29:18;;;;;;;54.35;20.83;;;;;;;2.95;100.00;93325.38;5064803;28;20094;-69
2023/02/01 10:31:45;;;;;;;63.53;24.73;;;;;;;2.91;100.00;93324.91;5067176;28;20057;-69
2023/02/01 10:34:20;;;;;;;32.47;13.38;;;;;;;2.88;100.00;93330.28;5045461;28;20036;-69
2023/02/01 10:36:55;;;;;;;62.78;24.40;;;;;;;2.82;100.00;93335.22;5071827;28;20457;-69
2023/02/01 10:39:22;;;;;;;13.10;5.40;;;;;;;2.88;100.00;93325.22;5072138;28;20520;-69
2023/02/01 10:41:49;;;;;;;52.08;21.98;;;;;;;2.94;100.00;93322.06;5071562;28;20060;-69
2023/02/01 10:44:22;;;;;;;17.70;7.25;;;;;;;2.99;100.00;93320.78;5072006;28;20048;-69
2023/02/01 10:46:49;;;;;;;10.15;4.50;;;;;;;3.00;100.00;93332.53;5060660;28;20463;-69
2023/02/01 10:49:23;;;;;;;10.98;5.20;;;;;;;3.00;100.00;93327.44;5068737;28;20055;-68
2023/02/01 10:51:55;;;;;;;22.83;8.90;;;;;;;3.01;100.00;93332.34;5071356;28;20390;-68
2023/02/01 10:54:32;;;;;;;48.72;20.45;;;;;;;3.09;100.00;93325.69;5071463;28;20086;-68
2023/02/01 10:56:59;;;;;;;36.75;17.98;;;;;;;3.13;100.00;93326.94;5071005;28;20045;-68
2023/02/01 10:59:28;;;;;;;15.00;7.38;;;;;;;3.20;100.00;93321.06;5071985;28;20052;-68
2023/02/01 11:02:00;;;;;;;15.38;7.90;;;;;;;3.25;99.15;93323.13;5071732;28;20040;-68
2023/02/01 11:04:34;;;;;;;8.20;4.63;;;;;;;3.24;95.27;93320.75;5071387;28;20131;-68
2023/02/01 11:07:14;;;;;;;9.18;4.70;;;;;;;3.21;95.89;93317.56;5071344;28;20048;-69
2023/02/01 11:09:41;;;;;;;13.88;6.78;;;;;;;3.26;98.83;93313.75;5071150;28;20090;-68
2023/02/01 11:12:25;;;;;;;12.38;5.82;;;;;;;3.32;100.00;93310.56;5054585;28;20098;-69
2023/02/01 11:15:14;;;;;;;30.60;18.98;;;;;;;3.21;95.01;93327.72;5071097;28;20048;-69
2023/02/01 11:17:43;;;;;;;7.55;3.58;;;;;;;2.91;93.66;93319.03;5071176;28;20400;-69
2023/02/01 11:20:16;;;;;;;8.10;4.35;;;;;;;2.28;90.98;93319.50;5071192;28;20044;-69
2023/02/01 11:22:48;;;;;;;8.15;3.83;;;;;;;2.42;93.24;93304.59;5071425;28;20098;-69
2023/02/01 11:25:17;;;;;;;8.48;3.92;;;;;;;2.40;93.60;93309.81;5061196;28;20086;-69
2023/02/01 11:27:44;;;;;;;11.10;5.90;;;;;;;2.43;92.00;93304.44;5069886;28;20102;-69
2023/02/01 11:30:17;;;;;;;16.25;7.28;;;;;;;2.61;100.00;93283.22;5071060;28;20053;-69
2023/02/01 11:32:45;;;;;;;19.17;11.07;;;;;;;2.69;100.00;93277.34;5071228;28;20420;-69
2023/02/01 11:35:20;;;;;;;17.25;7.32;;;;;;;2.67;93.06;93293.53;5068678;28;20049;-69
2023/02/01 11:37:55;;;;;;;8.07;3.65;;;;;;;2.65;94.01;93282.72;5071636;28;20048;-70
2023/02/01 11:40:32;;;;;;;10.32;3.20;;;;;;;2.77;99.92;93285.75;5071468;28;20044;-70
2023/02/01 11:43:12;;;;;;;5.63;2.45;;;;;;;2.65;93.47;93294.63;5071307;28;20519;-68
2023/02/01 11:45:40;;;;;;;12.50;8.70;;;;;;;2.84;97.02;93283.38;5062776;28;20056;-68
2023/02/01 11:48:10;;;;;;;17.60;9.73;;;;;;;3.02;100.00;93267.16;5066014;28;20139;-67
2023/02/01 11:50:45;;;;;;;13.40;8.63;;;;;;;3.14;100.00;93260.78;5071972;28;20036;-67
2023/02/01 11:53:26;;;;;;;12.43;6.25;;;;;;;3.26;100.00;93255.38;5071699;28;20041;-68
2023/02/01 11:56:10;;;;;;;11.80;6.93;;;;;;;3.25;99.16;93246.97;5070510;28;20493;-67
2023/02/01 11:58:58;;;;;;;6.18;3.72;;;;;;;3.24;98.73;93247.13;5070441;28;20098;-67